Time;durP1;ratioP1;P1;durP2;ratioP2;P2;SDS_P1;SDS_P2;PMS_P1;PMS_P2;Temp;Humidity;BMP_temperature;BMP_pressure;BME280_temperature;BME280_humidity;BME280_pressure;Samples;Min_cycle;Max_cycle;Signal;HPM_P1;HPM_P2
2021/09/23 00:01:56;;;;;;;20.30;9.00;;;;;;;10.21;100.00;100762.41;1719258;82;20992;-88
2021/09/23 00:04:37;;;;;;;20.32;9.13;;;;;;;10.21;100.00;100762.95;1719218;82;21923;-89
2021/09/23 00:07:03;;;;;;;18.45;8.55;;;;;;;10.20;100.00;100768.04;1718420;83;20994;-89
2021/09/23 00:09:30;;;;;;;16.65;8.03;;;;;;;10.15;100.00;100769.36;1719517;82;21446;-89
2021/09/23 00:11:56;;;;;;;19.12;7.95;;;;;;;10.13;100.00;100771.48;1719607;83;20968;-88
2021/09/23 00:14:22;;;;;;;20.40;8.80;;;;;;;10.12;100.00;100772.55;1719633;83;21007;-88
2021/09/23 00:16:49;;;;;;;17.55;8.75;;;;;;;10.12;100.00;100763.13;1719290;82;21129;-88
2021/09/23 00:19:16;;;;;;;21.37;9.23;;;;;;;10.14;100.00;100754.24;1719336;83;21014;-89
2021/09/23 00:21:42;;;;;;;21.05;8.85;;;;;;;10.15;100.00;100750.50;1719225;82;21054;-89
2021/09/23 00:24:08;;;;;;;16.00;8.33;;;;;;;10.12;100.00;100757.74;1719468;83;20864;-88
2021/09/23 00:26:34;;;;;;;19.40;8.73;;;;;;;10.08;100.00;100761.98;1750401;81;21021;-88
2021/09/23 00:29:03;;;;;;;21.62;8.83;;;;;;;10.03;100.00;100765.45;1751679;82;21313;-89
2021/09/23 00:31:28;;;;;;;16.40;8.55;;;;;;;10.03;100.00;100764.61;1750860;80;21001;-88
2021/09/23 00:33:54;;;;;;;18.17;9.30;;;;;;;10.03;100.00;100768.66;1751982;81;20914;-88
2021/09/23 00:36:20;;;;;;;20.48;8.93;;;;;;;9.87;100.00;100736.72;1751553;81;21008;-86
2021/09/23 00:38:45;;;;;;;20.92;9.20;;;;;;;10.07;100.00;100768.45;1751502;81;21489;-88
2021/09/23 00:41:11;;;;;;;19.90;9.90;;;;;;;10.09;100.00;100768.98;1751541;82;21145;-88
2021/09/23 00:43:37;;;;;;;22.87;9.65;;;;;;;10.09;100.00;100767.64;1751809;81;20925;-88
2021/09/23 00:46:03;;;;;;;26.50;10.45;;;;;;;10.08;100.00;100764.68;1750372;81;21004;-88
2021/09/23 00:48:29;;;;;;;23.65;10.05;;;;;;;10.07;100.00;100763.88;1751583;82;20878;-88
2021/09/23 00:50:58;;;;;;;19.98;8.78;;;;;;;10.06;100.00;100769.50;1752030;81;20941;-89
2021/09/23 00:53:24;;;;;;;20.05;9.28;;;;;;;10.03;100.00;100766.80;1751227;81;21135;-88
2021/09/23 00:55:50;;;;;;;25.92;10.78;;;;;;;10.03;100.00;100764.11;1750550;81;21000;-88
2021/09/23 00:58:17;;;;;;;21.95;9.48;;;;;;;10.03;100.00;100758.72;1751569;81;20910;-88
2021/09/23 01:00:43;;;;;;;21.57;10.18;;;;;;;10.01;100.00;100760.30;1751526;82;20998;-87
2021/09/23 01:03:12;;;;;;;20.88;10.28;;;;;;;9.99;100.00;100756.23;1751826;81;21037;-88
2021/09/23 01:05:40;;;;;;;18.15;9.13;;;;;;;10.00;100.00;100759.23;1693957;84;21189;-87
2021/09/23 01:08:06;;;;;;;28.23;10.18;;;;;;;9.99;100.00;100761.08;1694175;84;21003;-88
2021/09/23 01:10:32;;;;;;;22.17;9.90;;;;;;;9.99;100.00;100761.62;1694053;84;21101;-88
2021/09/23 01:12:59;;;;;;;21.27;10.28;;;;;;;9.97;100.00;100762.39;1694221;84;21579;-89
2021/09/23 01:15:24;;;;;;;20.97;9.78;;;;;;;9.97;100.00;100767.78;1694021;84;21126;-88
2021/09/23 01:17:50;;;;;;;20.80;9.00;;;;;;;9.94;100.00;100763.73;1694182;84;21782;-87
2021/09/23 01:20:18;;;;;;;20.32;9.88;;;;;;;9.95;100.00;100759.16;1694058;84;21004;-88
2021/09/23 01:22:45;;;;;;;19.23;9.55;;;;;;;9.97;100.00;100760.54;1694209;84;21625;-88
2021/09/23 01:25:15;;;;;;;21.37;9.30;;;;;;;9.97;100.00;100757.84;1687744;84;20997;-87
2021/09/23 01:27:41;;;;;;;25.90;10.18;;;;;;;9.97;100.00;100762.39;1671743;85;21714;-88
2021/09/23 01:30:08;;;;;;;20.92;9.75;;;;;;;9.97;100.00;100755.16;1672007;85;21281;-88
2021/09/23 01:32:34;;;;;;;18.62;8.60;;;;;;;9.99;100.00;100758.39;1672014;85;21048;-88
2021/09/23 01:35:00;;;;;;;19.57;8.80;;;;;;;10.03;100.00;100756.03;1671923;85;21000;-89
2021/09/23 01:37:26;;;;;;;18.80;8.70;;;;;;;10.04;100.00;100756.84;1672057;85;20952;-88
2021/09/23 01:39:52;;;;;;;18.90;8.13;;;;;;;9.97;100.00;100753.81;1671965;85;21500;-88
2021/09/23 01:42:18;;;;;;;20.40;8.68;;;;;;;9.98;100.00;100755.96;1671891;85;21055;-88
2021/09/23 01:44:44;;;;;;;20.80;8.60;;;;;;;9.99;100.00;100754.89;1671977;85;20897;-88
2021/09/23 01:47:10;;;;;;;19.57;8.30;;;;;;;10.00;100.00;100750.61;1671731;85;20956;-89
2021/09/23 01:49:36;;;;;;;19.32;8.68;;;;;;;10.03;100.00;100749.30;1675350;84;20984;-88
2021/09/23 01:52:02;;;;;;;22.65;9.10;;;;;;;10.01;100.00;100747.38;1676774;84;21032;-89
2021/09/23 01:54:28;;;;;;;18.57;8.50;;;;;;;10.03;100.00;100750.64;1676446;85;21060;-89
2021/09/23 01:56:54;;;;;;;19.07;8.10;;;;;;;10.03;100.00;100749.80;1653143;85;20957;-87
2021/09/23 01:59:22;;;;;;;18.87;8.55;;;;;;;10.03;100.00;100751.16;1676719;85;21823;-89
2021/09/23 02:01:50;;;;;;;18.27;8.20;;;;;;;9.98;100.00;100747.89;1688319;82;20939;-89
2021/09/23 02:04:16;;;;;;;18.57;8.58;;;;;;;9.95;100.00;100745.70;1738375;82;21026;-88
2021/09/23 02:06:42;;;;;;;18.02;8.23;;;;;;;9.95;100.00;100745.16;1738360;82;21138;-88
2021/09/23 02:09:08;;;;;;;19.30;8.10;;;;;;;9.93;100.00;100742.44;1738284;82;21592;-88
2021/09/23 02:11:35;;;;;;;19.02;7.85;;;;;;;9.93;100.00;100747.81;1715324;82;20994;-88
2021/09/23 02:14:01;;;;;;;20.20;8.90;;;;;;;9.96;100.00;100747.31;1738354;82;21092;-88
2021/09/23 02:16:27;;;;;;;18.65;8.53;;;;;;;9.98;100.00;100749.23;1738477;82;20839;-89
2021/09/23 02:18:53;;;;;;;17.50;8.63;;;;;;;9.99;100.00;100742.23;1738408;82;21079;-88
2021/09/23 02:21:19;;;;;;;19.50;9.08;;;;;;;9.97;100.00;100747.08;1738282;82;20933;-89
2021/09/23 02:23:45;;;;;;;18.32;8.35;;;;;;;9.96;100.00;100747.31;1738372;82;20866;-89
2021/09/23 02:26:11;;;;;;;18.75;9.15;;;;;;;9.93;100.00;100745.13;1736933;80;21029;-90
2021/09/23 02:28:38;;;;;;;21.45;8.73;;;;;;;9.92;100.00;100747.55;1736017;81;21596;-89
2021/09/23 02:31:05;;;;;;;16.55;7.92;;;;;;;9.89;100.00;100745.36;1735894;82;21178;-89
2021/09/23 02:33:33;;;;;;;21.12;9.90;;;;;;;9.90;100.00;100747.78;1736019;82;21005;-89
2021/09/23 02:36:00;;;;;;;18.48;8.43;;;;;;;9.93;100.00;100745.13;1735757;81;20963;-89
2021/09/23 02:38:26;;;;;;;17.02;7.90;;;;;;;9.92;100.00;100744.86;1735862;82;21007;-89
2021/09/23 02:40:52;;;;;;;17.62;8.00;;;;;;;9.92;100.00;100747.02;1735994;82;21534;-89
2021/09/23 02:43:18;;;;;;;15.48;7.60;;;;;;;9.90;100.00;100749.13;1736181;82;21141;-93
2021/09/23 02:45:44;;;;;;;17.70;8.20;;;;;;;9.89;100.00;100744.83;1733120;82;20863;-89
2021/09/23 02:48:10;;;;;;;16.15;7.92;;;;;;;9.90;100.00;100749.13;1736024;82;21632;-86
2021/09/23 02:50:36;;;;;;;18.45;8.88;;;;;;;9.91;100.00;100749.44;1736251;82;20847;-89
2021/09/23 02:53:02;;;;;;;17.23;8.63;;;;;;;9.90;100.00;100747.78;1736072;82;20828;-87
2021/09/23 02:55:27;;;;;;;17.10;8.55;;;;;;;9.91;100.00;100750.78;1736111;81;20978;-90
2021/09/23 02:57:53;;;;;;;17.37;8.40;;;;;;;9.93;100.00;100755.90;1736080;82;20859;-90
2021/09/23 03:00:20;;;;;;;18.90;9.03;;;;;;;9.93;100.00;100760.74;1736159;82;20938;-92
2021/09/23 03:02:46;;;;;;;19.07;8.05;;;;;;;9.93;100.00;100754.02;1736083;82;21458;-84
2021/09/23 03:05:12;;;;;;;16.62;7.95;;;;;;;9.91;100.00;100753.47;1736188;82;20990;-90
2021/09/23 03:07:38;;;;;;;18.48;8.80;;;;;;;9.91;100.00;100749.94;1736024;82;21158;-89
2021/09/23 03:10:05;;;;;;;18.67;8.43;;;;;;;9.92;100.00;100741.63;1736005;82;20827;-89
2021/09/23 03:12:31;;;;;;;21.48;9.30;;;;;;;9.92;100.00;100743.52;1736011;82;21025;-89
2021/09/23 03:14:57;;;;;;;18.77;8.60;;;;;;;9.91;100.00;100748.09;1736062;82;21026;-89
2021/09/23 03:17:24;;;;;;;19.55;8.50;;;;;;;9.93;100.00;100747.28;1736160;81;21054;-90
2021/09/23 03:19:52;;;;;;;19.48;9.53;;;;;;;9.97;100.00;100747.08;1735785;82;21530;-90
2021/09/23 03:22:18;;;;;;;18.90;9.03;;;;;;;9.99;100.00;100751.66;1735495;82;20967;-89
2021/09/23 03:24:45;;;;;;;19.27;8.13;;;;;;;10.02;100.00;100751.69;1712357;82;21031;-90
2021/09/23 03:27:13;;;;;;;17.20;8.50;;;;;;;10.01;100.00;100751.42;1747140;80;21006;-89
2021/09/23 03:29:39;;;;;;;17.70;8.70;;;;;;;10.04;100.00;100751.45;1750805;82;20970;-90
2021/09/23 03:32:06;;;;;;;19.75;8.33;;;;;;;10.03;100.00;100747.95;1751521;81;21883;-90
2021/09/23 03:34:34;;;;;;;17.52;8.75;;;;;;;10.06;100.00;100755.52;1751726;81;21021;-90
2021/09/23 03:37:00;;;;;;;22.80;9.63;;;;;;;10.06;100.00;100754.18;1728392;82;21096;-89
2021/09/23 03:39:26;;;;;;;19.55;9.25;;;;;;;10.05;100.00;100752.53;1751802;82;20895;-90
2021/09/23 03:41:52;;;;;;;20.23;9.80;;;;;;;10.05;100.00;100756.57;1751547;82;20970;-90
2021/09/23 03:44:18;;;;;;;19.85;9.45;;;;;;;10.05;100.00;100755.22;1751763;82;21066;-90
2021/09/23 03:46:47;;;;;;;20.85;9.13;;;;;;;10.07;100.00;100757.68;1751709;81;20946;-90
2021/09/23 03:49:13;;;;;;;19.55;8.88;;;;;;;10.07;100.00;100763.06;1751974;82;20990;-89
2021/09/23 03:51:39;;;;;;;18.55;8.78;;;;;;;10.05;100.00;100760.61;1751683;82;20862;-90
2021/09/23 03:54:05;;;;;;;19.20;9.15;;;;;;;10.05;100.00;100761.14;1751768;82;20961;-89
2021/09/23 03:56:31;;;;;;;21.48;9.40;;;;;;;10.06;100.00;100759.56;1751763;82;21045;-90
2021/09/23 03:58:57;;;;;;;18.55;8.93;;;;;;;10.10;100.00;100758.52;1751745;81;20862;-90
2021/09/23 04:01:23;;;;;;;19.62;9.43;;;;;;;10.08;100.00;100758.75;1751744;82;20945;-89
2021/09/23 04:03:49;;;;;;;17.10;9.10;;;;;;;10.05;100.00;100753.88;1751849;82;21018;-90
2021/09/23 04:06:15;;;;;;;21.48;10.13;;;;;;;10.06;100.00;100752.83;1751673;81;21745;-90
2021/09/23 04:08:40;;;;;;;17.87;9.00;;;;;;;10.07;100.00;100749.60;1751811;81;21171;-90
2021/09/23 04:11:06;;;;;;;24.10;9.45;;;;;;;10.06;100.00;100756.03;1728103;82;20938;-91
2021/09/23 04:13:32;;;;;;;24.32;10.28;;;;;;;10.06;100.00;100761.42;1728461;82;20945;-90
2021/09/23 04:15:58;;;;;;;20.23;9.58;;;;;;;10.07;100.00;100765.22;1751834;82;20839;-90
2021/09/23 04:18:30;;;;;;;28.60;10.63;;;;;;;10.08;100.00;100763.34;1751812;82;21792;-90
2021/09/23 04:20:56;;;;;;;19.82;9.38;;;;;;;10.10;100.00;100764.72;1751435;82;21114;-90
2021/09/23 04:23:22;;;;;;;20.52;10.35;;;;;;;10.12;100.00;100767.17;1751742;81;20953;-90
2021/09/23 04:25:47;;;;;;;18.00;9.25;;;;;;;10.11;100.00;100771.72;1751607;81;20918;-90
2021/09/23 04:28:13;;;;;;;21.82;10.88;;;;;;;10.12;100.00;100766.63;1751953;81;20839;-90
2021/09/23 04:30:39;;;;;;;23.18;10.30;;;;;;;10.17;100.00;100763.97;1751647;82;20966;-90
2021/09/23 04:33:05;;;;;;;22.48;10.75;;;;;;;10.20;100.00;100767.50;1751637;82;21129;-88
2021/09/23 04:35:31;;;;;;;19.27;10.43;;;;;;;10.22;100.00;100764.03;1751583;81;20882;-90
2021/09/23 04:37:57;;;;;;;21.42;10.25;;;;;;;10.23;100.00;100767.03;1751716;82;21374;-90
2021/09/23 04:40:23;;;;;;;23.92;10.85;;;;;;;10.24;100.00;100770.53;1751761;82;20823;-90
2021/09/23 04:42:49;;;;;;;24.12;10.70;;;;;;;10.27;100.00;100770.59;1751587;82;20981;-87
2021/09/23 04:45:16;;;;;;;19.70;9.98;;;;;;;10.29;100.00;100769.78;1751689;82;21116;-90
2021/09/23 04:47:41;;;;;;;23.22;10.75;;;;;;;10.35;100.00;100772.80;1751496;82;21084;-89
2021/09/23 04:50:08;;;;;;;20.48;9.98;;;;;;;10.41;100.00;100777.17;1751659;81;20883;-90
2021/09/23 04:52:34;;;;;;;22.67;10.70;;;;;;;10.46;100.00;100774.00;1752031;81;21025;-90
2021/09/23 04:55:00;;;;;;;20.65;10.43;;;;;;;10.48;100.00;100778.34;1751489;81;20943;-90
2021/09/23 04:57:26;;;;;;;22.52;10.80;;;;;;;10.55;100.00;100773.02;1751590;82;21141;-90
2021/09/23 04:59:52;;;;;;;25.32;11.35;;;;;;;10.59;100.00;100778.19;1751653;82;21030;-90
2021/09/23 05:02:18;;;;;;;25.40;10.38;;;;;;;10.64;100.00;100777.41;1751563;81;20937;-89
2021/09/23 05:04:44;;;;;;;25.27;10.82;;;;;;;10.67;100.00;100771.50;1751695;81;20989;-90
2021/09/23 05:07:11;;;;;;;19.10;9.98;;;;;;;10.73;100.00;100774.52;1751688;82;21402;-90
2021/09/23 05:09:37;;;;;;;21.33;10.72;;;;;;;10.75;100.00;100775.08;1751729;82;21151;-90
2021/09/23 05:12:05;;;;;;;23.50;10.40;;;;;;;10.78;100.00;100772.41;1751558;82;21098;-90
2021/09/23 05:14:31;;;;;;;20.50;10.30;;;;;;;10.80;100.00;100775.67;1751687;81;21077;-90
2021/09/23 05:16:57;;;;;;;21.52;11.43;;;;;;;10.78;100.00;100771.88;1751507;82;20981;-88
2021/09/23 05:19:23;;;;;;;21.52;9.58;;;;;;;10.84;100.00;100770.04;1751662;81;21520;-89
2021/09/23 05:21:49;;;;;;;22.55;10.63;;;;;;;10.83;100.00;100766.53;1751659;82;21140;-90
2021/09/23 05:24:17;;;;;;;21.40;10.38;;;;;;;10.81;100.00;100775.95;1751681;82;20958;-89
2021/09/23 05:26:46;;;;;;;21.33;10.88;;;;;;;10.80;100.00;100771.09;1751308;80;21040;-89
2021/09/23 05:29:15;;;;;;;22.55;10.32;;;;;;;10.90;100.00;100774.40;1751643;81;21517;-90
2021/09/23 05:31:41;;;;;;;23.70;10.32;;;;;;;10.99;100.00;100772.84;1751365;81;21048;-90
2021/09/23 05:34:07;;;;;;;19.80;10.35;;;;;;;11.09;100.00;100770.78;1751608;82;21130;-90
2021/09/23 05:36:33;;;;;;;20.82;10.13;;;;;;;11.19;100.00;100771.39;1751664;81;20958;-89
2021/09/23 05:38:59;;;;;;;18.55;9.33;;;;;;;11.22;100.00;100773.56;1751698;81;20954;-89
2021/09/23 05:41:41;;;;;;;21.82;9.98;;;;;;;11.22;100.00;100772.21;1751662;81;21478;-88
2021/09/23 05:44:05;;;;;;;21.20;10.03;;;;;;;11.21;100.00;100781.39;1728100;82;20926;-88
2021/09/23 05:46:31;;;;;;;23.92;10.88;;;;;;;11.22;100.00;100783.00;1751714;81;21161;-89
2021/09/23 05:48:57;;;;;;;24.15;10.48;;;;;;;11.33;100.00;100782.81;1751772;81;21001;-89
2021/09/23 05:51:23;;;;;;;21.35;10.65;;;;;;;11.41;100.00;100782.84;1751728;82;20850;-88
2021/09/23 05:53:49;;;;;;;20.12;10.05;;;;;;;11.52;100.00;100777.79;1751733;81;21490;-88
2021/09/23 05:56:15;;;;;;;21.12;9.98;;;;;;;11.65;100.00;100785.14;1751485;81;20887;-88
2021/09/23 05:58:41;;;;;;;24.67;10.35;;;;;;;11.74;100.00;100784.94;1751602;82;21524;-87
2021/09/23 06:01:08;;;;;;;20.65;10.85;;;;;;;11.81;100.00;100782.80;1751662;81;20993;-88
2021/09/23 06:03:33;;;;;;;23.55;10.75;;;;;;;11.93;100.00;100783.96;1751738;82;20966;-89
2021/09/23 06:05:59;;;;;;;23.73;10.70;;;;;;;12.00;100.00;100782.66;1751837;81;20851;-88
2021/09/23 06:08:25;;;;;;;20.48;10.82;;;;;;;12.04;100.00;100782.93;1728573;82;21086;-88
2021/09/23 06:10:51;;;;;;;21.60;10.43;;;;;;;12.22;100.00;100781.09;1751616;82;21991;-88
2021/09/23 06:13:17;;;;;;;19.45;9.95;;;;;;;12.38;100.00;100776.55;1751534;82;20886;-89
2021/09/23 06:15:43;;;;;;;21.87;10.78;;;;;;;12.49;100.00;100775.47;1751757;82;20942;-88
2021/09/23 06:18:10;;;;;;;23.32;10.38;;;;;;;12.52;100.00;100777.38;1728005;82;21478;-88
2021/09/23 06:20:37;;;;;;;18.45;9.58;;;;;;;12.50;100.00;100767.65;1751635;82;21018;-87
2021/09/23 06:23:03;;;;;;;18.48;10.13;;;;;;;12.49;100.00;100766.55;1751419;81;21173;-87
2021/09/23 06:25:29;;;;;;;21.60;10.00;;;;;;;12.51;100.00;100764.40;1751403;82;21010;-90
2021/09/23 06:27:55;;;;;;;17.57;9.68;;;;;;;12.55;100.00;100770.08;1751182;81;20957;-86
2021/09/23 06:30:21;;;;;;;19.40;10.38;;;;;;;12.67;100.00;100774.68;1751607;82;20876;-87
2021/09/23 06:32:47;;;;;;;17.65;9.40;;;;;;;12.87;100.00;100770.63;1751756;81;20847;-87
2021/09/23 06:35:13;;;;;;;16.42;8.70;;;;;;;13.10;100.00;100772.53;1751630;81;21959;-87
2021/09/23 06:37:39;;;;;;;15.20;8.63;;;;;;;13.37;100.00;100773.05;1728392;82;20862;-87
2021/09/23 06:40:06;;;;;;;13.20;7.40;;;;;;;13.40;100.00;100763.02;1751831;81;20886;-86
2021/09/23 06:42:33;;;;;;;14.07;7.95;;;;;;;13.39;100.00;100762.77;1751467;82;21046;-88
2021/09/23 06:44:58;;;;;;;16.62;8.15;;;;;;;13.55;100.00;100766.78;1751627;81;20930;-92
2021/09/23 06:47:24;;;;;;;16.12;9.08;;;;;;;13.75;100.00;100760.49;1751672;81;21536;-88
2021/09/23 06:49:51;;;;;;;14.90;8.40;;;;;;;13.87;100.00;100754.20;1751539;82;20925;-88
2021/09/23 06:52:17;;;;;;;14.55;8.10;;;;;;;13.86;100.00;100764.78;1751305;82;20993;-88
2021/09/23 06:54:44;;;;;;;14.23;8.28;;;;;;;13.88;100.00;100757.72;1751536;81;20981;-88
2021/09/23 06:57:10;;;;;;;14.90;8.78;;;;;;;13.93;100.00;100759.06;1751574;81;21001;-88
2021/09/23 06:59:36;;;;;;;16.67;8.55;;;;;;;14.00;100.00;100760.91;1751660;82;21575;-88
2021/09/23 07:02:02;;;;;;;15.55;8.50;;;;;;;14.08;100.00;100761.14;1751590;82;20948;-88
2021/09/23 07:04:28;;;;;;;12.73;7.72;;;;;;;13.96;100.00;100760.66;1751665;82;20966;-88
2021/09/23 07:06:54;;;;;;;18.80;8.75;;;;;;;13.85;100.00;100768.05;1751702;81;20942;-88
2021/09/23 07:09:20;;;;;;;13.25;7.67;;;;;;;13.78;100.00;100770.77;1751583;82;20957;-88
2021/09/23 07:11:45;;;;;;;14.28;8.18;;;;;;;13.75;100.00;100766.72;1751565;82;21117;-88
2021/09/23 07:14:11;;;;;;;15.68;8.70;;;;;;;13.80;100.00;100769.41;1728316;82;20851;-88
2021/09/23 07:16:37;;;;;;;13.98;8.08;;;;;;;13.90;100.00;100767.20;1751738;82;20878;-88
2021/09/23 07:19:03;;;;;;;14.05;6.80;;;;;;;13.91;100.00;100762.58;1751638;82;21039;-87
2021/09/23 07:21:29;;;;;;;12.98;7.47;;;;;;;13.95;100.00;100768.53;1751763;81;20978;-88
2021/09/23 07:23:56;;;;;;;13.50;7.78;;;;;;;13.94;100.00;100768.28;1751545;82;21107;-87
2021/09/23 07:26:23;;;;;;;11.75;7.12;;;;;;;13.98;100.00;100763.11;1751339;80;20990;-90
2021/09/23 07:28:48;;;;;;;12.28;6.95;;;;;;;13.95;100.00;100767.18;1751781;82;21381;-89
2021/09/23 07:31:14;;;;;;;9.63;6.03;;;;;;;13.90;100.00;100769.10;1751775;82;20843;-89
2021/09/23 07:33:40;;;;;;;12.43;7.20;;;;;;;13.78;100.00;100769.42;1751838;82;20903;-89
2021/09/23 07:36:07;;;;;;;12.40;7.20;;;;;;;13.70;100.00;100768.63;1702885;82;21855;-88
2021/09/23 07:38:33;;;;;;;10.40;6.75;;;;;;;13.65;100.00;100773.53;1751614;81;20982;-88
2021/09/23 07:40:59;;;;;;;11.38;7.20;;;;;;;13.53;100.00;100767.08;1751785;82;20874;-88
2021/09/23 07:43:25;;;;;;;14.35;7.58;;;;;;;13.46;100.00;100765.73;1728588;82;20851;-89
2021/09/23 07:45:50;;;;;;;13.43;6.90;;;;;;;13.36;100.00;100771.44;1751797;81;20875;-89
2021/09/23 07:48:16;;;;;;;13.30;7.55;;;;;;;13.34;100.00;100764.12;1751827;82;21583;-88
2021/09/23 07:50:43;;;;;;;16.37;7.58;;;;;;;13.24;100.00;100761.42;1751719;81;20819;-88
2021/09/23 07:53:09;;;;;;;15.78;8.40;;;;;;;13.17;100.00;100758.97;1751368;81;20953;-88
2021/09/23 07:55:35;;;;;;;15.60;8.48;;;;;;;13.14;100.00;100754.10;1751678;81;20858;-89
2021/09/23 07:58:01;;;;;;;14.63;8.40;;;;;;;13.12;100.00;100755.48;1751885;81;20867;-89
2021/09/23 08:00:27;;;;;;;16.25;9.13;;;;;;;13.10;100.00;100751.69;1751662;82;21520;-89
2021/09/23 08:02:53;;;;;;;16.75;8.73;;;;;;;13.02;100.00;100746.81;1751355;82;21414;-89
2021/09/23 08:05:20;;;;;;;18.73;9.18;;;;;;;12.97;100.00;100753.61;1728623;82;20950;-88
2021/09/23 08:07:48;;;;;;;16.07;9.08;;;;;;;12.93;100.00;100747.91;1751523;82;20966;-86
2021/09/23 08:10:14;;;;;;;17.27;9.13;;;;;;;12.94;100.00;100751.42;1728634;81;21492;-89
2021/09/23 08:12:40;;;;;;;16.73;8.70;;;;;;;12.89;100.00;100750.09;1728762;82;21781;-88
2021/09/23 08:15:08;;;;;;;16.15;8.98;;;;;;;12.81;100.00;100742.52;1751455;81;20874;-88
2021/09/23 08:17:34;;;;;;;15.85;8.73;;;;;;;12.77;100.00;100739.55;1751703;81;21009;-88
2021/09/23 08:20:00;;;;;;;17.23;9.00;;;;;;;12.76;100.00;100736.55;1751693;81;21411;-88
2021/09/23 08:22:26;;;;;;;15.80;8.98;;;;;;;12.79;100.00;100735.20;1751541;82;20855;-89
2021/09/23 08:24:52;;;;;;;15.70;8.75;;;;;;;12.77;100.00;100734.69;1751733;81;21096;-89
2021/09/23 08:27:18;;;;;;;18.37;9.38;;;;;;;12.71;100.00;100731.97;1751582;81;20953;-89
2021/09/23 08:29:45;;;;;;;15.15;8.45;;;;;;;12.69;100.00;100728.72;1751622;81;20929;-88
2021/09/23 08:32:11;;;;;;;16.02;8.55;;;;;;;12.69;100.00;100733.32;1749687;80;21434;-86
2021/09/23 08:34:37;;;;;;;18.92;9.63;;;;;;;12.72;100.00;100732.23;1721474;80;20968;-90
2021/09/23 08:37:03;;;;;;;19.92;9.75;;;;;;;12.72;100.00;100726.82;1745754;82;21111;-91
2021/09/23 08:39:30;;;;;;;18.35;9.13;;;;;;;12.70;100.00;100721.41;1750664;82;20983;-91
2021/09/23 08:41:56;;;;;;;17.35;9.15;;;;;;;12.76;100.00;100719.52;1750590;82;21035;-93
2021/09/23 08:44:22;;;;;;;17.07;9.28;;;;;;;12.80;100.00;100719.27;1751067;82;21071;-92
2021/09/23 08:46:48;;;;;;;15.80;8.63;;;;;;;12.85;100.00;100720.08;1751168;82;20975;-90
2021/09/23 08:49:14;;;;;;;19.07;10.28;;;;;;;12.87;100.00;100718.44;1751317;82;21721;-89
2021/09/23 08:51:46;;;;;;;23.98;10.90;;;;;;;12.91;100.00;100721.70;1750904;82;20923;-88
2021/09/23 08:54:12;;;;;;;22.30;11.38;;;;;;;12.95;100.00;100722.76;1751171;82;21074;-92
2021/09/23 08:56:37;;;;;;;22.32;10.55;;;;;;;13.00;100.00;100719.77;1750980;82;20931;-90
2021/09/23 08:59:04;;;;;;;20.90;10.72;;;;;;;13.00;100.00;100720.60;1751184;82;20995;-91
2021/09/23 09:01:41;;;;;;;24.12;11.53;;;;;;;13.04;100.00;100718.16;1750976;82;21137;-89
2021/09/23 09:04:08;;;;;;;18.85;10.28;;;;;;;13.09;100.00;100714.09;1746412;82;21574;-90
2021/09/23 09:06:34;;;;;;;22.82;11.73;;;;;;;13.15;100.00;100719.22;1718116;82;21010;-91
2021/09/23 09:09:02;;;;;;;27.87;11.70;;;;;;;13.24;100.00;100721.37;1751156;82;21027;-92
2021/09/23 09:11:30;;;;;;;18.30;10.10;;;;;;;13.30;100.00;100718.40;1750683;82;20987;-90
2021/09/23 09:13:56;;;;;;;16.93;8.88;;;;;;;13.41;100.00;100717.81;1719466;82;21174;-91
2021/09/23 09:16:26;;;;;;;19.10;8.88;;;;;;;13.49;100.00;100718.60;1749091;81;20999;-90
2021/09/23 09:18:57;;;;;;;16.55;9.00;;;;;;;13.55;100.00;100714.78;1723178;81;20995;-90
2021/09/23 09:21:26;;;;;;;15.50;8.88;;;;;;;13.65;100.00;100715.31;1742011;81;21058;-90
2021/09/23 09:24:02;;;;;;;15.38;8.55;;;;;;;13.73;100.00;100714.71;1750027;81;21500;-91
2021/09/23 09:26:33;;;;;;;17.75;8.90;;;;;;;13.78;100.00;100705.21;1747922;80;21491;-89
2021/09/23 09:29:04;;;;;;;15.95;8.93;;;;;;;13.91;100.00;100709.75;1715147;82;21019;-90
2021/09/23 09:31:31;;;;;;;14.28;7.97;;;;;;;14.10;100.00;100709.39;1704686;83;20952;-89
2021/09/23 09:34:02;;;;;;;12.93;7.50;;;;;;;14.16;100.00;100706.09;1708486;84;21002;-89
2021/09/23 09:36:36;;;;;;;14.45;8.28;;;;;;;14.25;100.00;100712.55;1708511;84;20972;-89
2021/09/23 09:39:11;;;;;;;13.03;7.65;;;;;;;14.26;100.00;100712.80;1708516;83;21147;-90
2021/09/23 09:41:40;;;;;;;14.68;7.58;;;;;;;14.28;100.00;100708.72;1708186;83;20983;-88
2021/09/23 09:44:09;;;;;;;13.45;7.37;;;;;;;14.38;100.00;100713.25;1708437;83;21078;-90
2021/09/23 09:46:43;;;;;;;16.02;8.53;;;;;;;14.62;100.00;100709.33;1708418;83;21012;-89
2021/09/23 09:49:09;;;;;;;12.93;7.47;;;;;;;14.62;100.00;100709.33;1691700;83;20990;-93
2021/09/23 09:51:53;;;;;;;12.70;7.05;;;;;;;14.68;100.00;100694.63;1691213;84;21892;-88
2021/09/23 09:54:20;;;;;;;19.62;7.83;;;;;;;14.76;100.00;100708.94;1691253;84;21032;-89
2021/09/23 09:56:56;;;;;;;12.98;7.37;;;;;;;14.92;100.00;100715.58;1691551;84;21544;-91
2021/09/23 09:59:22;;;;;;;14.07;7.75;;;;;;;14.99;100.00;100714.13;1653465;86;21068;-90
2021/09/23 10:01:51;;;;;;;14.38;8.13;;;;;;;14.99;100.00;100714.13;1653540;86;21015;-89
2021/09/23 10:04:20;;;;;;;15.35;8.63;;;;;;;15.07;100.00;100718.13;1599490;89;21207;-88
2021/09/23 10:06:47;;;;;;;15.95;8.90;;;;;;;15.03;100.00;100698.63;1599597;89;21054;-90
2021/09/23 10:09:17;;;;;;;18.87;9.38;;;;;;;15.03;100.00;100698.63;1599571;89;21605;-87
2021/09/23 10:11:47;;;;;;;16.85;9.35;;;;;;;15.13;100.00;100718.89;1602338;87;21055;-86
2021/09/23 10:14:16;;;;;;;15.93;9.23;;;;;;;15.17;100.00;100712.59;1530614;93;21073;-89
2021/09/23 10:16:42;;;;;;;17.42;9.43;;;;;;;15.17;100.00;100709.88;1527729;94;21130;-89
2021/09/23 10:19:09;;;;;;;15.15;8.73;;;;;;;15.30;100.00;100711.67;1527349;94;21687;-88
2021/09/23 10:21:37;;;;;;;17.00;9.20;;;;;;;15.31;100.00;100712.72;1527658;94;21037;-88
2021/09/23 10:24:07;;;;;;;16.60;9.30;;;;;;;15.35;100.00;100713.78;1508703;94;21532;-88
2021/09/23 10:26:43;;;;;;;17.27;9.50;;;;;;;15.38;100.00;100711.84;1515088;94;21113;-86
2021/09/23 10:34:45;;;;;;;18.35;9.38;;;;;;;15.47;100.00;100714.73;1365235;103;21131;-87
2021/09/23 10:37:10;;;;;;;15.93;9.55;;;;;;;15.52;100.00;100709.77;1319891;107;21117;-87
2021/09/23 10:39:38;;;;;;;19.57;9.00;;;;;;;15.54;100.00;100711.11;1318379;108;21003;-87
2021/09/23 10:42:07;;;;;;;17.67;8.43;;;;;;;15.58;100.00;100714.05;1311964;108;21249;-85
2021/09/23 10:44:34;;;;;;;18.70;9.53;;;;;;;15.56;100.00;100715.70;1318232;108;21179;-87
2021/09/23 10:47:00;;;;;;;16.97;9.20;;;;;;;15.43;100.00;100710.41;1317541;108;21188;-86
2021/09/23 10:49:26;;;;;;;16.85;9.43;;;;;;;15.31;100.00;100720.06;1312001;108;21699;-86
2021/09/23 10:51:53;;;;;;;15.78;9.20;;;;;;;15.20;100.00;100724.23;1312285;108;21771;-86
2021/09/23 10:54:27;;;;;;;17.27;9.30;;;;;;;15.17;100.00;100722.09;1312271;108;21442;-85
2021/09/23 10:56:53;;;;;;;15.00;9.05;;;;;;;15.10;100.00;100724.34;1312116;108;21218;-88
2021/09/23 10:59:20;;;;;;;17.40;8.95;;;;;;;14.73;100.00;100710.83;1317775;108;21694;-84
2021/09/23 11:01:47;;;;;;;17.05;8.90;;;;;;;14.73;100.00;100710.83;1325441;107;21604;-84
2021/09/23 11:04:14;;;;;;;15.43;9.03;;;;;;;14.67;100.00;100713.88;1312773;107;21210;-84
2021/09/23 11:06:41;;;;;;;16.45;9.10;;;;;;;14.71;100.00;100733.94;1329133;107;21238;-84
2021/09/23 11:09:21;;;;;;;14.78;8.65;;;;;;;14.51;100.00;100718.08;1363633;104;21135;-83
2021/09/23 11:11:50;;;;;;;14.85;8.50;;;;;;;14.53;100.00;100726.75;1368795;104;21734;-84
2021/09/23 11:14:18;;;;;;;16.45;9.78;;;;;;;14.47;100.00;100727.02;1356685;105;21062;-85